createdAt,value
2016-03-17T00:00:13.868Z,957.88
2016-03-17T00:01:13.825Z,957.87
2016-03-17T00:02:13.765Z,957.85
2016-03-17T00:03:13.689Z,957.82
2016-03-17T00:04:13.629Z,957.82
2016-03-17T00:05:13.570Z,957.83
2016-03-17T00:06:13.509Z,957.82
2016-03-17T00:07:13.481Z,957.8
2016-03-17T00:08:13.389Z,957.84
2016-03-17T00:09:13.330Z,957.86
2016-03-17T00:10:13.286Z,957.8
2016-03-17T00:11:13.210Z,957.84
2016-03-17T00:12:13.150Z,957.86
2016-03-17T00:13:13.091Z,957.87
2016-03-17T00:14:13.063Z,957.86
2016-03-17T00:15:12.987Z,957.86
2016-03-17T00:16:12.927Z,957.86
2016-03-17T00:17:12.868Z,957.88
2016-03-17T00:18:12.807Z,957.87
2016-03-17T00:19:12.749Z,957.85
2016-03-17T00:20:12.688Z,957.88
2016-03-17T00:21:12.644Z,957.9
2016-03-17T00:22:12.616Z,957.89
2016-03-17T00:23:12.509Z,957.92
2016-03-17T00:24:12.449Z,957.91
2016-03-17T00:25:12.405Z,957.88
2016-03-17T00:26:12.345Z,957.9
2016-03-17T00:27:12.269Z,957.83
2016-03-17T00:28:12.225Z,957.83
2016-03-17T00:29:12.150Z,957.84
2016-03-17T00:30:12.106Z,957.89
2016-03-17T00:31:12.031Z,957.92
2016-03-17T00:32:11.986Z,957.92
2016-03-17T00:33:11.911Z,957.9
2016-03-17T00:34:11.866Z,957.93
2016-03-17T00:35:11.806Z,957.95
2016-03-17T00:36:11.747Z,957.93
2016-03-17T00:37:11.687Z,957.95
2016-03-17T00:38:11.628Z,957.97
2016-03-17T00:39:11.552Z,957.96
2016-03-17T00:40:11.555Z,957.95
2016-03-17T00:41:11.447Z,957.9
2016-03-17T00:42:11.388Z,957.91
2016-03-17T00:43:11.312Z,957.94
2016-03-17T00:44:11.268Z,957.96
2016-03-17T00:45:11.201Z,957.98
2016-03-17T00:46:11.141Z,957.92
2016-03-17T00:47:11.097Z,957.97
2016-03-17T00:48:11.037Z,957.95
2016-03-17T00:49:10.962Z,957.89
2016-03-17T00:50:10.903Z,957.85
2016-03-17T00:51:10.842Z,957.86
2016-03-17T00:52:10.783Z,957.89
2016-03-17T00:53:10.739Z,957.88
2016-03-17T00:54:10.678Z,957.9
2016-03-17T00:55:10.619Z,957.92
2016-03-17T00:56:10.591Z,957.91
2016-03-17T00:57:10.484Z,957.92
2016-03-17T00:58:10.424Z,957.93
2016-03-17T00:59:10.364Z,957.9
2016-03-17T01:00:10.320Z,957.92
2016-03-17T01:01:10.260Z,957.93
2016-03-17T01:02:10.279Z,957.91
2016-03-17T01:03:10.157Z,957.95
2016-03-17T01:04:10.080Z,957.94
2016-03-17T01:05:10.021Z,957.92
2016-03-17T01:06:09.961Z,957.9
2016-03-17T01:07:10.162Z,957.85
2016-03-17T01:08:09.837Z,957.87
2016-03-17T01:09:09.793Z,957.86
2016-03-17T01:10:09.717Z,957.91
2016-03-17T01:11:09.673Z,957.87
2016-03-17T01:12:09.598Z,957.87
2016-03-17T01:13:09.538Z,957.87
2016-03-17T01:14:09.478Z,957.86
2016-03-17T01:15:09.434Z,957.86
2016-03-17T01:16:09.373Z,957.82
2016-03-17T01:17:09.299Z,957.8
2016-03-17T01:18:09.254Z,957.85
2016-03-17T01:19:09.195Z,957.85
2016-03-17T01:20:09.135Z,957.84
2016-03-17T01:21:09.075Z,957.84
2016-03-17T01:22:09.015Z,957.82
2016-03-17T01:23:08.986Z,957.82
2016-03-17T01:24:08.895Z,957.83
2016-03-17T01:25:08.836Z,957.81
2016-03-17T01:26:08.792Z,957.83
2016-03-17T01:27:08.731Z,957.8
2016-03-17T01:28:08.672Z,957.78
2016-03-17T01:29:08.597Z,957.77
2016-03-17T01:30:08.552Z,957.76
2016-03-17T01:31:08.492Z,957.78
2016-03-17T01:32:08.432Z,957.76
2016-03-17T01:33:08.372Z,957.73
2016-03-17T01:34:08.297Z,957.72
2016-03-17T01:35:08.237Z,957.69
2016-03-17T01:36:08.177Z,957.66
2016-03-17T01:37:08.149Z,957.69
2016-03-17T01:38:08.074Z,957.65
2016-03-17T01:39:08.014Z,957.65
2016-03-17T01:40:07.939Z,957.67
2016-03-17T01:41:07.879Z,957.66
2016-03-17T01:42:07.835Z,957.65
2016-03-17T01:43:07.775Z,957.67
2016-03-17T01:44:07.715Z,957.63
2016-03-17T01:45:07.655Z,957.64
2016-03-17T01:46:07.580Z,957.64
2016-03-17T01:47:07.582Z,957.64
2016-03-17T01:48:07.460Z,957.67
2016-03-17T01:49:07.400Z,957.65
2016-03-17T01:50:07.356Z,957.69
2016-03-17T01:51:07.296Z,957.67
2016-03-17T01:52:07.237Z,957.71
2016-03-17T01:53:07.177Z,957.73
2016-03-17T01:54:07.117Z,957.71
2016-03-17T01:55:07.042Z,957.71
2016-03-17T01:56:07.013Z,957.72
2016-03-17T01:57:06.937Z,957.73
2016-03-17T01:58:06.878Z,957.76
2016-03-17T01:59:06.817Z,957.79
2016-03-17T02:00:06.759Z,957.77
2016-03-17T02:01:06.698Z,957.76
2016-03-17T02:02:06.639Z,957.77
2016-03-17T02:03:06.578Z,957.74
2016-03-17T02:04:06.534Z,957.77
2016-03-17T02:05:06.474Z,957.77
2016-03-17T02:06:06.414Z,957.74
2016-03-17T02:07:06.339Z,957.77
2016-03-17T02:08:06.279Z,957.75
2016-03-17T02:09:06.219Z,957.75
2016-03-17T02:10:06.160Z,957.73
2016-03-17T02:11:06.116Z,957.72
2016-03-17T02:12:06.040Z,957.73
2016-03-17T02:13:05.997Z,957.72
2016-03-17T02:14:05.921Z,957.71
2016-03-17T02:15:05.877Z,957.75
2016-03-17T02:16:05.802Z,957.75
2016-03-17T02:17:05.757Z,957.77
2016-03-17T02:18:05.697Z,957.73
2016-03-17T02:19:05.621Z,957.74
2016-03-17T02:20:05.562Z,957.76
2016-03-17T02:21:05.502Z,957.69
2016-03-17T02:22:05.442Z,957.67
2016-03-17T02:23:05.399Z,957.65
2016-03-17T02:24:05.338Z,957.61
2016-03-17T02:25:05.279Z,957.67
2016-03-17T02:26:05.204Z,957.67
2016-03-17T02:27:05.143Z,957.67
2016-03-17T02:28:05.115Z,957.66
2016-03-17T02:29:05.039Z,957.61
2016-03-17T02:30:04.979Z,957.62
2016-03-17T02:31:04.904Z,957.66
2016-03-17T02:32:04.845Z,957.61
2016-03-17T02:33:04.800Z,957.61
2016-03-17T02:34:04.725Z,957.6
2016-03-17T02:35:04.680Z,957.57
2016-03-17T02:36:04.620Z,957.56
2016-03-17T02:37:04.561Z,957.56
2016-03-17T02:38:04.486Z,957.51
2016-03-17T02:39:04.426Z,957.51
2016-03-17T02:40:04.366Z,957.5
2016-03-17T02:41:04.338Z,957.52
2016-03-17T02:42:04.277Z,957.46
2016-03-17T02:43:04.202Z,957.5
2016-03-17T02:44:04.142Z,957.47
2016-03-17T02:45:04.082Z,957.41
2016-03-17T02:46:04.022Z,957.41
2016-03-17T02:47:03.963Z,957.38
2016-03-17T02:48:03.903Z,957.4
2016-03-17T02:49:03.843Z,957.38
2016-03-17T02:50:03.783Z,957.38
2016-03-17T02:51:03.740Z,957.37
2016-03-17T02:52:03.663Z,957.42
2016-03-17T02:53:03.605Z,957.41
2016-03-17T02:54:03.544Z,957.38
2016-03-17T02:55:03.485Z,957.38
2016-03-17T02:56:03.440Z,957.37
2016-03-17T02:57:03.381Z,957.34
2016-03-17T02:58:03.320Z,957.38
2016-03-17T02:59:03.277Z,957.37
2016-03-17T03:00:03.232Z,957.4
2016-03-17T03:01:03.125Z,957.39
2016-03-17T03:02:03.081Z,957.4
2016-03-17T03:03:03.006Z,957.35
2016-03-17T03:04:02.962Z,957.4
2016-03-17T03:05:02.887Z,957.39
2016-03-17T03:06:02.826Z,957.41
2016-03-17T03:07:02.767Z,957.45
2016-03-17T03:08:02.723Z,957.41
2016-03-17T03:09:02.664Z,957.46
2016-03-17T03:10:02.586Z,957.43
2016-03-17T03:11:02.574Z,957.43
2016-03-17T03:12:02.467Z,957.4
2016-03-17T03:13:02.392Z,957.45
2016-03-17T03:14:02.363Z,957.43
2016-03-17T03:15:02.304Z,957.45
2016-03-17T03:16:02.227Z,957.44
2016-03-17T03:17:02.199Z,957.43
2016-03-17T03:18:02.108Z,957.47
2016-03-17T03:19:02.049Z,957.4
2016-03-17T03:20:02.004Z,957.41
2016-03-17T03:21:01.929Z,957.37
2016-03-17T03:22:01.869Z,957.4
2016-03-17T03:23:01.810Z,957.43
2016-03-17T03:24:01.766Z,957.45
2016-03-17T03:25:01.691Z,957.47
2016-03-17T03:26:01.615Z,957.43
2016-03-17T03:27:01.571Z,957.42
2016-03-17T03:28:01.495Z,957.46
2016-03-17T03:29:01.435Z,957.44
2016-03-17T03:30:01.407Z,957.45
2016-03-17T03:31:01.347Z,957.44
2016-03-17T03:32:01.287Z,957.43
2016-03-17T03:33:01.211Z,957.43
2016-03-17T03:34:01.167Z,957.44
2016-03-17T03:35:01.108Z,957.46
2016-03-17T03:36:01.032Z,957.43
2016-03-17T03:37:00.973Z,957.45
2016-03-17T03:38:00.900Z,957.44
2016-03-17T03:39:00.828Z,957.46
2016-03-17T03:40:00.756Z,957.5
2016-03-17T03:41:00.684Z,957.49
2016-03-17T03:42:00.611Z,957.5
2016-03-17T03:43:00.548Z,957.49
2016-03-17T03:44:00.483Z,957.49
2016-03-17T03:45:00.420Z,957.47
2016-03-17T03:46:00.355Z,957.51
2016-03-17T03:47:00.291Z,957.44
2016-03-17T03:48:00.230Z,957.45
2016-03-17T03:49:00.169Z,957.51
2016-03-17T03:50:00.092Z,957.49
2016-03-17T03:51:00.046Z,957.49
2016-03-17T03:51:59.985Z,957.5
2016-03-17T03:52:59.925Z,957.46
2016-03-17T03:53:59.849Z,957.49
2016-03-17T03:54:59.803Z,957.49
2016-03-17T03:55:59.728Z,957.47
2016-03-17T03:56:59.682Z,957.5
2016-03-17T03:57:59.607Z,957.49
2016-03-17T03:58:59.563Z,957.5
2016-03-17T03:59:59.488Z,957.5
2016-03-17T04:00:59.443Z,957.5
2016-03-17T04:01:59.399Z,957.52
2016-03-17T04:02:59.323Z,957.52
2016-03-17T04:03:59.248Z,957.47
2016-03-17T04:04:59.187Z,957.48
2016-03-17T04:05:59.128Z,957.49
2016-03-17T04:06:59.068Z,957.54
2016-03-17T04:07:59.008Z,957.54
2016-03-17T04:08:58.964Z,957.58
2016-03-17T04:09:58.889Z,957.55
2016-03-17T04:10:58.829Z,957.61
2016-03-17T04:11:58.770Z,957.58
2016-03-17T04:12:58.725Z,957.58
2016-03-17T04:13:58.665Z,957.6
2016-03-17T04:14:58.590Z,957.58
2016-03-17T04:15:58.545Z,957.59
2016-03-17T04:16:58.486Z,957.58
2016-03-17T04:17:58.411Z,957.58
2016-03-17T04:18:58.350Z,957.58
2016-03-17T04:19:58.306Z,957.61
2016-03-17T04:20:58.230Z,957.62
2016-03-17T04:21:58.186Z,957.65
2016-03-17T04:22:58.127Z,957.68
2016-03-17T04:23:58.099Z,957.68
2016-03-17T04:24:58.008Z,957.68
2016-03-17T04:25:57.947Z,957.69
2016-03-17T04:26:57.888Z,957.67
2016-03-17T04:27:57.813Z,957.66
2016-03-17T04:28:57.753Z,957.67
2016-03-17T04:29:57.693Z,957.68
2016-03-17T04:30:57.633Z,957.71
2016-03-17T04:31:57.588Z,957.69
2016-03-17T04:32:57.513Z,957.67
2016-03-17T04:33:57.453Z,957.7
2016-03-17T04:34:57.393Z,957.64
2016-03-17T04:35:57.349Z,957.66
2016-03-17T04:36:57.273Z,957.67
2016-03-17T04:37:57.214Z,957.66
2016-03-17T04:38:57.154Z,957.67
2016-03-17T04:39:57.095Z,957.67
2016-03-17T04:40:57.035Z,957.67
2016-03-17T04:41:56.976Z,957.68
2016-03-17T04:42:56.915Z,957.64
2016-03-17T04:43:56.856Z,957.73
2016-03-17T04:44:56.811Z,957.71
2016-03-17T04:45:56.736Z,957.73
2016-03-17T04:46:56.676Z,957.73
2016-03-17T04:47:56.617Z,957.73
2016-03-17T04:48:56.572Z,957.72
2016-03-17T04:49:56.512Z,957.76
2016-03-17T04:50:56.436Z,957.75
2016-03-17T04:51:56.392Z,957.73
2016-03-17T04:52:56.316Z,957.72
2016-03-17T04:53:56.288Z,957.8
2016-03-17T04:54:56.197Z,957.78
2016-03-17T04:55:56.153Z,957.78
2016-03-17T04:56:56.077Z,957.77
2016-03-17T04:57:56.019Z,957.77
2016-03-17T04:58:55.958Z,957.76
2016-03-17T04:59:55.899Z,957.77
2016-03-17T05:00:55.854Z,957.79
2016-03-17T05:01:55.779Z,957.77
2016-03-17T05:02:55.719Z,957.82
2016-03-17T05:03:55.659Z,957.82
2016-03-17T05:04:55.599Z,957.84
2016-03-17T05:05:55.540Z,957.82
2016-03-17T05:06:55.479Z,957.8
2016-03-17T05:07:55.435Z,957.81
2016-03-17T05:08:55.375Z,957.85
2016-03-17T05:09:55.300Z,957.86
2016-03-17T05:10:55.240Z,957.89
2016-03-17T05:11:55.181Z,957.9
2016-03-17T05:12:55.137Z,957.89
2016-03-17T05:13:55.077Z,957.88
2016-03-17T05:14:55.017Z,957.89
2016-03-17T05:15:54.941Z,957.86
2016-03-17T05:16:54.898Z,957.85
2016-03-17T05:17:54.822Z,957.89
2016-03-17T05:18:54.775Z,957.87
2016-03-17T05:19:54.700Z,957.89
2016-03-17T05:20:54.655Z,957.94
2016-03-17T05:21:54.611Z,957.95
2016-03-17T05:22:54.520Z,957.89
2016-03-17T05:23:54.476Z,957.91
2016-03-17T05:24:54.401Z,957.93
2016-03-17T05:25:54.356Z,957.88
2016-03-17T05:26:54.281Z,957.95
2016-03-17T05:27:54.221Z,957.93
2016-03-17T05:28:54.177Z,957.95
2016-03-17T05:29:54.102Z,957.94
2016-03-17T05:30:54.057Z,957.95
2016-03-17T05:31:53.997Z,957.94
2016-03-17T05:32:53.937Z,957.97
2016-03-17T05:33:53.863Z,957.97
2016-03-17T05:34:53.818Z,957.96
2016-03-17T05:35:53.743Z,957.99
2016-03-17T05:36:53.699Z,957.99
2016-03-17T05:37:53.654Z,958.04
2016-03-17T05:38:53.563Z,958.02
2016-03-17T05:39:53.519Z,958.03
2016-03-17T05:40:53.459Z,958.04
2016-03-17T05:41:53.399Z,958.05
2016-03-17T05:42:53.340Z,958.05
2016-03-17T05:43:53.265Z,958.07
2016-03-17T05:44:53.236Z,958.05
2016-03-17T05:45:53.160Z,958.05
2016-03-17T05:46:53.084Z,958.1
2016-03-17T05:47:53.056Z,958.08
2016-03-17T05:48:52.981Z,958.08
2016-03-17T05:49:52.920Z,958.07
2016-03-17T05:50:52.845Z,958.11
2016-03-17T05:51:52.800Z,958.13
2016-03-17T05:52:52.741Z,958.11
2016-03-17T05:53:52.681Z,958.12
2016-03-17T05:54:52.622Z,958.1
2016-03-17T05:55:52.547Z,958.13
2016-03-17T05:56:52.486Z,958.12
2016-03-17T05:57:52.442Z,958.15
2016-03-17T05:58:52.398Z,958.18
2016-03-17T05:59:52.322Z,958.17
2016-03-17T06:00:52.263Z,958.2
2016-03-17T06:01:52.203Z,958.17
2016-03-17T06:02:52.128Z,958.15
2016-03-17T06:03:52.083Z,958.17
2016-03-17T06:04:52.024Z,958.16
2016-03-17T06:05:51.964Z,958.17
2016-03-17T06:06:51.921Z,958.15
2016-03-17T06:07:51.844Z,958.18
2016-03-17T06:08:51.785Z,958.16
2016-03-17T06:09:51.724Z,958.17
2016-03-17T06:10:51.665Z,958.18
2016-03-17T06:11:51.637Z,958.18
2016-03-17T06:12:51.576Z,958.23
2016-03-17T06:13:51.485Z,958.19
2016-03-17T06:14:51.425Z,958.23
2016-03-17T06:15:51.366Z,958.26
2016-03-17T06:16:51.306Z,958.23
2016-03-17T06:17:51.246Z,958.28
2016-03-17T06:18:51.187Z,958.29
2016-03-17T06:19:51.126Z,958.32
2016-03-17T06:20:51.083Z,958.36
2016-03-17T06:21:51.007Z,958.39
2016-03-17T06:22:50.947Z,958.4
2016-03-17T06:23:50.887Z,958.41
2016-03-17T06:24:50.843Z,958.41
2016-03-17T06:25:50.767Z,958.38
2016-03-17T06:26:50.707Z,958.43
2016-03-17T06:27:50.647Z,958.4
2016-03-17T06:28:50.604Z,958.39
2016-03-17T06:29:50.543Z,958.39
2016-03-17T06:30:50.485Z,958.4
2016-03-17T06:31:50.408Z,958.44
2016-03-17T06:32:50.349Z,958.43
2016-03-17T06:33:50.289Z,958.45
2016-03-17T06:34:50.246Z,958.46
2016-03-17T06:35:50.169Z,958.47
2016-03-17T06:36:50.108Z,958.43
2016-03-17T06:37:50.092Z,958.47
2016-03-17T06:38:50.002Z,958.5
2016-03-17T06:39:49.945Z,958.5
2016-03-17T06:40:49.890Z,958.52
2016-03-17T06:41:49.814Z,958.55
2016-03-17T06:42:49.755Z,958.52
2016-03-17T06:43:49.695Z,958.5
2016-03-17T06:44:49.635Z,958.5
2016-03-17T06:45:49.591Z,958.52
2016-03-17T06:46:49.516Z,958.51
2016-03-17T06:47:49.455Z,958.55
2016-03-17T06:48:49.396Z,958.54
2016-03-17T06:49:49.339Z,958.59
2016-03-17T06:50:49.280Z,958.57
2016-03-17T06:51:49.219Z,958.58
2016-03-17T06:52:49.144Z,958.53
2016-03-17T06:53:49.100Z,958.55
2016-03-17T06:54:49.071Z,958.54
2016-03-17T06:55:48.980Z,958.58
2016-03-17T06:56:48.935Z,958.6
2016-03-17T06:57:48.860Z,958.6
2016-03-17T06:58:48.816Z,958.63
2016-03-17T06:59:48.740Z,958.6
2016-03-17T07:00:48.682Z,958.61
2016-03-17T07:01:48.668Z,958.61
2016-03-17T07:02:48.561Z,958.6
2016-03-17T07:03:48.501Z,958.6
2016-03-17T07:04:48.457Z,958.58
2016-03-17T07:05:48.382Z,958.58
2016-03-17T07:06:48.322Z,958.55
2016-03-17T07:07:48.262Z,958.55
2016-03-17T07:08:48.203Z,958.58
2016-03-17T07:09:48.143Z,958.54
2016-03-17T07:10:48.099Z,958.57
2016-03-17T07:11:48.023Z,958.54
2016-03-17T07:12:47.995Z,958.58
2016-03-17T07:13:47.904Z,958.59
2016-03-17T07:14:47.859Z,958.63
2016-03-17T07:15:47.784Z,958.57
2016-03-17T07:16:47.739Z,958.62
2016-03-17T07:17:47.664Z,958.65
2016-03-17T07:18:47.620Z,958.62
2016-03-17T07:19:47.561Z,958.64
2016-03-17T07:20:47.500Z,958.65
2016-03-17T07:21:47.441Z,958.67
2016-03-17T07:22:47.365Z,958.7
2016-03-17T07:23:47.321Z,958.74
2016-03-17T07:24:47.261Z,958.72
2016-03-17T07:25:47.202Z,958.69
2016-03-17T07:26:47.142Z,958.7
2016-03-17T07:27:47.083Z,958.72
2016-03-17T07:28:47.054Z,958.75
2016-03-17T07:29:46.963Z,958.74
2016-03-17T07:30:46.902Z,958.74
2016-03-17T07:31:46.843Z,958.75
2016-03-17T07:32:46.783Z,958.75
2016-03-17T07:33:46.724Z,958.77
2016-03-17T07:34:46.679Z,958.77
2016-03-17T07:35:46.619Z,958.79
2016-03-17T07:36:46.543Z,958.8
2016-03-17T07:37:46.500Z,958.77
2016-03-17T07:38:46.440Z,958.77
2016-03-17T07:39:46.381Z,958.8
2016-03-17T07:40:46.320Z,958.79
2016-03-17T07:41:46.244Z,958.81
2016-03-17T07:42:46.184Z,958.76
2016-03-17T07:43:46.125Z,958.81
2016-03-17T07:44:46.081Z,958.76
2016-03-17T07:45:46.006Z,958.77
2016-03-17T07:46:45.945Z,958.78
2016-03-17T07:47:45.902Z,958.74
2016-03-17T07:48:45.826Z,958.76
2016-03-17T07:49:45.813Z,958.76
2016-03-17T07:50:45.706Z,958.75
2016-03-17T07:51:45.647Z,958.77
2016-03-17T07:52:45.586Z,958.78
2016-03-17T07:53:45.543Z,958.8
2016-03-17T07:54:45.466Z,958.82
2016-03-17T07:55:45.408Z,958.79
2016-03-17T07:56:45.347Z,958.8
2016-03-17T07:57:45.335Z,958.83
2016-03-17T07:58:45.244Z,958.8
2016-03-17T07:59:45.184Z,958.8
2016-03-17T08:00:45.124Z,958.82
2016-03-17T08:01:45.079Z,958.83
2016-03-17T08:02:45.004Z,958.84
2016-03-17T08:03:44.929Z,958.84
2016-03-17T08:04:44.885Z,958.88
2016-03-17T08:05:44.825Z,958.81
2016-03-17T08:06:44.754Z,958.85
2016-03-17T08:07:44.710Z,958.84
2016-03-17T08:08:44.650Z,958.86
2016-03-17T08:09:44.575Z,958.85
2016-03-17T08:10:44.515Z,958.83
2016-03-17T08:11:44.471Z,958.84
2016-03-17T08:12:44.396Z,958.83
2016-03-17T08:13:44.351Z,958.85
2016-03-17T08:14:44.276Z,958.86
2016-03-17T08:15:44.232Z,958.86
2016-03-17T08:16:44.188Z,958.86
2016-03-17T08:17:44.112Z,958.84
2016-03-17T08:18:44.052Z,958.86
2016-03-17T08:19:43.993Z,958.86
2016-03-17T08:20:43.933Z,958.85
2016-03-17T08:21:43.873Z,958.89
2016-03-17T08:22:43.813Z,958.88
2016-03-17T08:23:43.753Z,958.88
2016-03-17T08:24:43.693Z,958.87
2016-03-17T08:25:43.633Z,958.88
2016-03-17T08:26:43.574Z,958.88
2016-03-17T08:27:43.530Z,958.84
2016-03-17T08:28:43.455Z,958.88
2016-03-17T08:29:43.441Z,958.89
2016-03-17T08:30:43.351Z,958.87
2016-03-17T08:31:43.274Z,958.88
2016-03-17T08:32:43.231Z,958.9
2016-03-17T08:33:43.155Z,958.94
2016-03-17T08:34:43.096Z,958.94
2016-03-17T08:35:43.068Z,958.96
2016-03-17T08:36:42.993Z,958.94
2016-03-17T08:37:42.948Z,959.02
2016-03-17T08:38:42.857Z,958.99
2016-03-17T08:39:42.813Z,958.98
2016-03-17T08:40:42.768Z,958.97
2016-03-17T08:41:42.709Z,958.96
2016-03-17T08:42:42.633Z,958.96
2016-03-17T08:43:42.572Z,958.91
2016-03-17T08:44:42.514Z,958.91
2016-03-17T08:45:42.469Z,958.91
2016-03-17T08:46:42.394Z,958.9
2016-03-17T08:47:42.333Z,958.91
2016-03-17T08:48:42.274Z,958.89
2016-03-17T08:49:42.214Z,958.93
2016-03-17T08:50:42.155Z,958.88
2016-03-17T08:51:42.094Z,958.89
2016-03-17T08:52:42.050Z,958.87
2016-03-17T08:53:41.991Z,958.88
2016-03-17T08:54:41.931Z,958.9
2016-03-17T08:55:41.855Z,958.9
2016-03-17T08:56:41.811Z,958.89
2016-03-17T08:57:41.766Z,958.87
2016-03-17T08:58:41.691Z,958.87
2016-03-17T08:59:41.632Z,958.85
2016-03-17T09:00:41.572Z,958.84
2016-03-17T09:01:41.512Z,958.83
2016-03-17T09:02:41.452Z,958.86
2016-03-17T09:03:41.407Z,958.85
2016-03-17T09:04:41.333Z,958.82
2016-03-17T09:05:41.273Z,958.82
2016-03-17T09:06:41.218Z,958.85
2016-03-17T09:07:41.173Z,958.87
2016-03-17T09:08:41.099Z,958.83
2016-03-17T09:09:41.054Z,958.87
2016-03-17T09:10:40.979Z,958.87
2016-03-17T09:11:40.934Z,958.89
2016-03-17T09:12:40.875Z,958.89
2016-03-17T09:13:40.815Z,958.9
2016-03-17T09:14:40.756Z,958.88
2016-03-17T09:15:40.695Z,958.88
2016-03-17T09:16:40.636Z,958.83
2016-03-17T09:17:40.575Z,958.83
2016-03-17T09:18:40.531Z,958.85
2016-03-17T09:19:40.455Z,958.88
2016-03-17T09:20:40.396Z,958.86
2016-03-17T09:21:40.352Z,958.87
2016-03-17T09:22:41.885Z,958.89
2016-03-17T09:23:40.233Z,958.89
2016-03-17T09:24:40.157Z,958.92
2016-03-17T09:25:40.128Z,958.92
2016-03-17T09:26:40.041Z,958.91
2016-03-17T09:27:39.997Z,958.88
2016-03-17T09:28:39.937Z,958.91
2016-03-17T09:29:39.893Z,958.9
2016-03-17T09:30:39.817Z,958.9
2016-03-17T09:31:39.758Z,958.92
2016-03-17T09:32:39.714Z,958.91
2016-03-17T09:33:39.639Z,958.94
2016-03-17T09:34:39.578Z,958.92
2016-03-17T09:35:39.534Z,958.96
2016-03-17T09:36:39.459Z,958.92
2016-03-17T09:37:39.414Z,958.98
2016-03-17T09:38:39.339Z,958.95
2016-03-17T09:39:39.311Z,958.96
2016-03-17T09:40:39.236Z,958.93
2016-03-17T09:41:39.191Z,958.95
2016-03-17T09:42:39.131Z,958.96
2016-03-17T09:43:39.071Z,958.97
2016-03-17T09:44:38.996Z,958.94
2016-03-17T09:45:38.936Z,958.93
2016-03-17T09:46:38.891Z,958.97
2016-03-17T09:47:38.832Z,958.96
2016-03-17T09:48:38.757Z,958.93
2016-03-17T09:49:38.713Z,958.94
2016-03-17T09:50:38.684Z,958.9
2016-03-17T09:51:38.593Z,958.94
2016-03-17T09:52:38.533Z,958.93
2016-03-17T09:53:38.505Z,958.94
2016-03-17T09:54:38.414Z,958.94
2016-03-17T09:55:38.369Z,958.92
2016-03-17T09:56:38.340Z,958.91
2016-03-17T09:57:38.266Z,958.86
2016-03-17T09:58:38.221Z,958.88
2016-03-17T09:59:38.131Z,958.91
2016-03-17T10:00:38.086Z,958.93
2016-03-17T10:01:38.011Z,958.91
2016-03-17T10:02:37.967Z,958.82
2016-03-17T10:03:37.906Z,958.84
2016-03-17T10:04:37.862Z,958.86
2016-03-17T10:05:37.787Z,958.88
2016-03-17T10:06:37.742Z,958.87
2016-03-17T10:07:37.667Z,958.91
2016-03-17T10:08:37.623Z,958.88
2016-03-17T10:09:37.548Z,958.88
2016-03-17T10:10:37.503Z,958.89
2016-03-17T10:11:37.458Z,958.87
2016-03-17T10:12:37.400Z,958.88
2016-03-17T10:13:37.325Z,958.87
2016-03-17T10:14:37.263Z,958.88
2016-03-17T10:15:37.220Z,958.9
2016-03-17T10:16:37.160Z,958.92
2016-03-17T10:17:37.100Z,958.89
2016-03-17T10:18:37.056Z,958.9
2016-03-17T10:19:36.996Z,958.92
2016-03-17T10:20:36.937Z,958.88
2016-03-17T10:21:36.893Z,958.87
2016-03-17T10:22:36.832Z,958.84
2016-03-17T10:23:36.757Z,958.88
2016-03-17T10:24:36.728Z,958.85
2016-03-17T10:25:36.668Z,958.85
2016-03-17T10:26:36.593Z,958.83
2016-03-17T10:27:36.565Z,958.81
2016-03-17T10:28:36.474Z,958.83
2016-03-17T10:29:36.429Z,958.86
2016-03-17T10:30:36.385Z,958.86
2016-03-17T10:31:36.341Z,958.84
2016-03-17T10:32:36.266Z,958.83
2016-03-17T10:33:36.237Z,958.8
2016-03-17T10:34:36.145Z,958.81
2016-03-17T10:35:36.102Z,958.85
2016-03-17T10:36:36.026Z,958.81
2016-03-17T10:37:35.998Z,958.81
2016-03-17T10:38:35.923Z,958.82
2016-03-17T10:39:35.878Z,958.78
2016-03-17T10:40:35.834Z,958.8
2016-03-17T10:41:35.821Z,958.82
2016-03-17T10:42:35.699Z,958.81
2016-03-17T10:43:35.670Z,958.81
2016-03-17T10:44:35.595Z,958.81
2016-03-17T10:45:35.535Z,958.8
2016-03-17T10:46:35.475Z,958.79
2016-03-17T10:47:35.463Z,958.78
2016-03-17T10:48:35.403Z,958.78
2016-03-17T10:49:35.327Z,958.75
2016-03-17T10:50:35.268Z,958.76
2016-03-17T10:51:35.238Z,958.7
2016-03-17T10:52:35.179Z,958.74
2016-03-17T10:53:35.104Z,958.74
2016-03-17T10:54:35.044Z,958.69
2016-03-17T10:55:34.984Z,958.73
2016-03-17T10:56:34.955Z,958.7
2016-03-17T10:57:34.895Z,958.69
2016-03-17T10:58:34.836Z,958.7
2016-03-17T10:59:34.776Z,958.69
2016-03-17T11:00:34.732Z,958.7
2016-03-17T11:01:34.687Z,958.68
2016-03-17T11:02:34.612Z,958.66
2016-03-17T11:03:34.568Z,958.64
2016-03-17T11:04:34.523Z,958.68
2016-03-17T11:05:34.495Z,958.66
2016-03-17T11:06:34.404Z,958.6
2016-03-17T11:07:34.360Z,958.6
2016-03-17T11:08:34.316Z,958.61
2016-03-17T11:09:34.258Z,958.6
2016-03-17T11:10:34.199Z,958.54
2016-03-17T11:11:34.155Z,958.55
2016-03-17T11:12:34.095Z,958.54
2016-03-17T11:13:34.036Z,958.51
2016-03-17T11:14:34.053Z,958.52
2016-03-17T11:15:33.932Z,958.48
2016-03-17T11:16:33.903Z,958.49
2016-03-17T11:17:33.827Z,958.52
2016-03-17T11:18:33.830Z,958.52
2016-03-17T11:19:33.739Z,958.48
2016-03-17T11:20:33.663Z,958.51
2016-03-17T11:21:33.620Z,958.5
2016-03-17T11:22:33.574Z,958.5
2016-03-17T11:23:33.516Z,958.49
2016-03-17T11:24:33.455Z,958.5
2016-03-17T11:25:33.411Z,958.48
2016-03-17T11:26:33.382Z,958.47
2016-03-17T11:27:33.292Z,958.49
2016-03-17T11:28:33.294Z,958.44
2016-03-17T11:29:33.204Z,958.45
2016-03-17T11:30:33.144Z,958.41
2016-03-17T11:31:33.115Z,958.41
2016-03-17T11:32:33.054Z,958.41
2016-03-17T11:33:32.995Z,958.36
2016-03-17T11:34:32.982Z,958.39
2016-03-17T11:35:32.907Z,958.34
2016-03-17T11:36:32.863Z,958.36
2016-03-17T11:37:32.787Z,958.33
2016-03-17T11:38:32.743Z,958.31
2016-03-17T11:39:32.699Z,958.31
2016-03-17T11:40:32.640Z,958.26
2016-03-17T11:41:32.579Z,958.24
2016-03-17T11:42:32.535Z,958.28
2016-03-17T11:43:32.491Z,958.23
2016-03-17T11:44:32.431Z,958.23
2016-03-17T11:45:32.387Z,958.18
2016-03-17T11:46:32.328Z,958.2
2016-03-17T11:47:32.314Z,958.19
2016-03-17T11:48:32.208Z,958.18
2016-03-17T11:49:32.164Z,958.19
2016-03-17T11:50:32.135Z,958.16
2016-03-17T11:51:32.059Z,958.16
2016-03-17T11:52:32.016Z,958.16
2016-03-17T11:53:31.955Z,958.14
2016-03-17T11:54:31.911Z,958.14
2016-03-17T11:55:31.866Z,958.17
2016-03-17T11:56:31.807Z,958.16
2016-03-17T11:57:31.747Z,958.16
2016-03-17T11:58:31.719Z,958.13
2016-03-17T11:59:31.660Z,958.11
2016-03-17T12:00:31.635Z,958.1
2016-03-17T12:01:31.560Z,958.05
2016-03-17T12:02:31.500Z,958.03
2016-03-17T12:03:31.440Z,958.02
2016-03-17T12:04:31.396Z,958.02
2016-03-17T12:05:31.367Z,958.03
2016-03-17T12:06:31.292Z,958.04
2016-03-17T12:07:31.279Z,958.02
2016-03-17T12:08:31.204Z,957.98
2016-03-17T12:09:31.160Z,957.95
2016-03-17T12:10:31.084Z,957.96
2016-03-17T12:11:31.086Z,957.93
2016-03-17T12:12:30.995Z,957.9
2016-03-17T12:13:30.952Z,957.88
2016-03-17T12:14:30.892Z,957.87
2016-03-17T12:15:30.831Z,957.87
2016-03-17T12:16:30.788Z,957.84
2016-03-17T12:17:30.744Z,957.82
2016-03-17T12:18:30.730Z,957.77
2016-03-17T12:19:30.624Z,957.74
2016-03-17T12:20:30.642Z,957.76
2016-03-17T12:21:30.536Z,957.81
2016-03-17T12:22:30.554Z,957.74
2016-03-17T12:23:30.447Z,957.75
2016-03-17T12:24:30.419Z,957.73
2016-03-17T12:25:30.343Z,957.78
2016-03-17T12:26:30.299Z,957.71
2016-03-17T12:27:30.224Z,957.69
2016-03-17T12:28:30.179Z,957.67
2016-03-17T12:29:30.119Z,957.68
2016-03-17T12:30:30.076Z,957.66